Time;durP1;ratioP1;P1;durP2;ratioP2;P2;SDS_P1;SDS_P2;PMS_P1;PMS_P2;Temp;Humidity;BMP_temperature;BMP_pressure;BME280_temperature;BME280_humidity;BME280_pressure;Samples;Min_cycle;Max_cycle;Signal;HPM_P1;HPM_P2
2023/09/29 00:00:21;;;;;;;;;;;11.80;99.90;;;;;;5056284;28;19904;-54
2023/09/29 00:02:49;;;;;;;;;;;11.80;99.90;;;;;;5056142;28;19908;-54
2023/09/29 00:05:18;;;;;;;;;;;11.80;99.90;;;;;;5056217;28;19958;-54
2023/09/29 00:07:43;;;;;;;;;;;11.70;99.90;;;;;;5055735;28;20273;-54
2023/09/29 00:10:13;;;;;;;;;;;11.70;99.90;;;;;;5056224;28;19944;-54
2023/09/29 00:12:39;;;;;;;;;;;11.50;99.90;;;;;;5055764;28;19920;-54
2023/09/29 00:15:06;;;;;;;;;;;11.60;99.90;;;;;;5056032;28;19952;-54
2023/09/29 00:17:32;;;;;;;;;;;11.50;99.90;;;;;;5056136;28;19908;-54
2023/09/29 00:19:58;;;;;;;;;;;11.50;99.90;;;;;;5055051;28;19916;-54
2023/09/29 00:22:24;;;;;;;;;;;11.50;99.90;;;;;;5055629;28;19916;-54
2023/09/29 00:24:50;;;;;;;;;;;11.50;99.90;;;;;;5055953;28;19908;-54
2023/09/29 00:27:16;;;;;;;;;;;11.50;99.90;;;;;;5055828;28;20005;-54
2023/09/29 00:29:42;;;;;;;;;;;11.40;99.90;;;;;;5037988;28;19991;-54
2023/09/29 00:32:08;;;;;;;;;;;11.40;99.90;;;;;;5055784;28;20352;-54
2023/09/29 00:34:33;;;;;;;;;;;11.40;99.90;;;;;;5037958;28;19912;-54
2023/09/29 00:36:59;;;;;;;;;;;11.40;99.90;;;;;;5038001;28;19909;-54
2023/09/29 00:39:25;;;;;;;;;;;11.40;99.90;;;;;;5055749;28;19951;-54
2023/09/29 00:41:51;;;;;;;;;;;11.40;99.90;;;;;;5037906;28;19931;-54
2023/09/29 00:44:17;;;;;;;;;;;11.30;99.90;;;;;;5037756;28;19909;-54
2023/09/29 00:46:43;;;;;;;;;;;11.30;99.90;;;;;;5037891;28;19988;-54
2023/09/29 00:49:09;;;;;;;;;;;11.30;99.90;;;;;;5037725;28;20384;-54
2023/09/29 00:51:35;;;;;;;;;;;11.20;99.90;;;;;;5055763;28;19909;-54
2023/09/29 00:54:08;;;;;;;;;;;11.30;99.90;;;;;;5055548;28;20054;-54
2023/09/29 00:56:38;;;;;;;;;;;11.40;99.90;;;;;;5055348;28;19909;-54
2023/09/29 00:59:06;;;;;;;;;;;11.40;99.90;;;;;;5066945;28;19912;-54
2023/09/29 01:01:35;;;;;;;;;;;11.50;99.90;;;;;;5075640;28;19943;-54
2023/09/29 01:04:02;;;;;;;;;;;11.50;99.90;;;;;;5075417;28;19958;-54
2023/09/29 01:06:31;;;;;;;;;;;11.30;99.90;;;;;;5074280;28;19908;-54
2023/09/29 01:08:59;;;;;;;;;;;11.30;99.90;;;;;;5074067;28;19923;-54
2023/09/29 01:11:25;;;;;;;;;;;11.30;99.90;;;;;;5075514;28;19909;-54
2023/09/29 01:13:51;;;;;;;;;;;11.20;99.90;;;;;;5073869;28;19961;-54
2023/09/29 01:16:17;;;;;;;;;;;11.10;99.90;;;;;;5075471;28;19957;-54
2023/09/29 01:18:43;;;;;;;;;;;11.20;99.90;;;;;;5074202;28;19913;-54
2023/09/29 01:21:09;;;;;;;;;;;11.20;99.90;;;;;;5075409;28;20003;-54
2023/09/29 01:23:35;;;;;;;;;;;11.20;99.90;;;;;;5074119;28;19989;-54
2023/09/29 01:26:02;;;;;;;;;;;11.10;99.90;;;;;;5074074;28;19924;-54
2023/09/29 01:28:29;;;;;;;;;;;11.10;99.90;;;;;;5075281;28;19947;-54
2023/09/29 01:30:55;;;;;;;;;;;11.10;99.90;;;;;;5076461;28;19957;-54
2023/09/29 01:33:23;;;;;;;;;;;11.10;99.90;;;;;;5078972;28;19915;-54
2023/09/29 01:35:50;;;;;;;;;;;11.10;99.90;;;;;;5061147;28;19947;-54
2023/09/29 01:38:16;;;;;;;;;;;11.00;99.90;;;;;;5079129;28;19962;-54
2023/09/29 01:40:44;;;;;;;;;;;11.10;99.90;;;;;;5078923;28;19908;-54
2023/09/29 01:43:10;;;;;;;;;;;11.00;99.90;;;;;;5078863;28;19916;-54
2023/09/29 01:45:38;;;;;;;;;;;11.10;99.90;;;;;;5078777;28;19913;-54
2023/09/29 01:48:04;;;;;;;;;;;11.20;99.90;;;;;;5078838;28;19909;-54
2023/09/29 01:50:33;;;;;;;;;;;11.20;99.90;;;;;;5078853;28;19911;-54
2023/09/29 01:52:58;;;;;;;;;;;11.20;99.90;;;;;;5078564;28;19916;-54
2023/09/29 01:55:24;;;;;;;;;;;11.30;99.90;;;;;;5060648;28;20373;-54
2023/09/29 01:57:51;;;;;;;;;;;11.10;99.90;;;;;;5077495;28;19915;-54
2023/09/29 02:00:20;;;;;;;;;;;11.10;99.90;;;;;;5058323;28;19921;-54
2023/09/29 02:02:47;;;;;;;;;;;11.10;99.90;;;;;;5040641;28;19913;-54
2023/09/29 02:05:12;;;;;;;;;;;11.00;99.90;;;;;;5058343;28;19908;-54
2023/09/29 02:07:39;;;;;;;;;;;11.00;99.90;;;;;;5058220;28;20027;-54
2023/09/29 02:10:05;;;;;;;;;;;11.00;99.90;;;;;;5058370;28;19909;-54
2023/09/29 02:12:33;;;;;;;;;;;11.00;99.90;;;;;;5058085;28;19913;-54
2023/09/29 02:14:59;;;;;;;;;;;10.90;99.90;;;;;;5040349;28;19975;-54
2023/09/29 02:17:25;;;;;;;;;;;10.90;99.90;;;;;;5040463;28;19974;-54
2023/09/29 02:19:52;;;;;;;;;;;10.90;99.90;;;;;;5040351;28;19908;-54
2023/09/29 02:22:19;;;;;;;;;;;10.90;99.90;;;;;;5040236;28;19904;-54
2023/09/29 02:24:45;;;;;;;;;;;11.00;99.90;;;;;;5058091;28;19923;-54
2023/09/29 02:27:11;;;;;;;;;;;11.00;99.90;;;;;;5058039;28;19991;-54
2023/09/29 02:29:36;;;;;;;;;;;10.90;99.90;;;;;;5040153;28;19917;-54
2023/09/29 02:32:02;;;;;;;;;;;10.90;99.90;;;;;;5057910;28;19916;-54
2023/09/29 02:34:28;;;;;;;;;;;10.90;99.90;;;;;;5057785;28;19987;-54
2023/09/29 02:36:54;;;;;;;;;;;10.90;99.90;;;;;;5057599;28;19908;-54
2023/09/29 02:39:21;;;;;;;;;;;10.80;99.90;;;;;;5057608;28;19908;-54
2023/09/29 02:41:48;;;;;;;;;;;10.80;99.90;;;;;;5039358;28;19912;-54
2023/09/29 02:44:14;;;;;;;;;;;10.80;99.90;;;;;;5057151;28;19915;-54
2023/09/29 02:46:39;;;;;;;;;;;10.70;99.90;;;;;;5057721;28;20320;-54
2023/09/29 02:49:07;;;;;;;;;;;10.60;99.90;;;;;;5057628;28;20003;-54
2023/09/29 02:51:33;;;;;;;;;;;10.60;99.90;;;;;;5039793;28;19991;-54
2023/09/29 02:53:59;;;;;;;;;;;10.50;99.90;;;;;;5057482;28;20387;-54
2023/09/29 02:56:26;;;;;;;;;;;10.60;99.90;;;;;;5056152;28;19909;-54
2023/09/29 02:58:54;;;;;;;;;;;10.60;99.90;;;;;;5057367;28;20271;-54
2023/09/29 03:01:20;;;;;;;;;;;10.60;99.90;;;;;;5057484;28;19913;-54
2023/09/29 03:03:47;;;;;;;;;;;10.50;99.90;;;;;;5057308;28;19913;-54
2023/09/29 03:06:18;;;;;;;;;;;10.60;99.90;;;;;;5057281;28;19912;-54
2023/09/29 03:08:44;;;;;;;;;;;10.60;99.90;;;;;;5056917;28;20004;-54
2023/09/29 03:11:12;;;;;;;;;;;10.60;99.90;;;;;;5057261;28;19959;-54
2023/09/29 03:13:43;;;;;;;;;;;10.80;99.90;;;;;;5056834;28;20262;-54
2023/09/29 03:16:10;;;;;;;;;;;10.70;99.90;;;;;;5057149;28;19909;-54
2023/09/29 03:18:36;;;;;;;;;;;10.70;99.90;;;;;;5057074;28;19916;-54
2023/09/29 03:21:04;;;;;;;;;;;10.70;99.90;;;;;;5038968;28;19915;-54
2023/09/29 03:23:34;;;;;;;;;;;10.60;99.90;;;;;;5056938;28;19908;-54
2023/09/29 03:26:00;;;;;;;;;;;10.60;99.90;;;;;;5056905;28;19909;-54
2023/09/29 03:28:25;;;;;;;;;;;10.50;99.90;;;;;;5056862;28;19912;-54
2023/09/29 03:30:51;;;;;;;;;;;10.50;99.90;;;;;;5039005;28;20014;-54
2023/09/29 03:33:17;;;;;;;;;;;10.50;99.90;;;;;;5056631;28;19920;-54
2023/09/29 03:35:43;;;;;;;;;;;10.40;99.90;;;;;;5056779;28;19909;-54
2023/09/29 03:38:09;;;;;;;;;;;10.30;99.90;;;;;;5056737;28;19915;-54
2023/09/29 03:40:35;;;;;;;;;;;10.30;99.90;;;;;;5056972;28;19915;-54
2023/09/29 03:43:01;;;;;;;;;;;10.30;99.90;;;;;;5056520;28;19905;-54
2023/09/29 03:45:27;;;;;;;;;;;10.30;99.90;;;;;;5056448;28;20362;-54
2023/09/29 03:47:53;;;;;;;;;;;10.20;99.90;;;;;;5056580;28;19935;-54
2023/09/29 03:50:19;;;;;;;;;;;10.20;99.90;;;;;;5056540;28;19916;-54
2023/09/29 03:52:46;;;;;;;;;;;10.30;99.90;;;;;;5056522;28;19962;-54
2023/09/29 03:55:12;;;;;;;;;;;10.30;99.90;;;;;;5056232;28;19909;-54
2023/09/29 03:57:38;;;;;;;;;;;10.30;99.90;;;;;;5056331;28;20350;-54
2023/09/29 04:00:09;;;;;;;;;;;10.30;99.90;;;;;;5075785;28;20377;-54
2023/09/29 04:02:41;;;;;;;;;;;10.20;99.90;;;;;;5076359;28;19909;-54
2023/09/29 04:05:07;;;;;;;;;;;10.20;99.90;;;;;;5076120;28;19919;-54
2023/09/29 04:07:36;;;;;;;;;;;10.10;99.90;;;;;;5075844;28;19912;-54
2023/09/29 04:10:02;;;;;;;;;;;10.20;99.90;;;;;;5076247;28;19911;-54
2023/09/29 04:12:28;;;;;;;;;;;10.10;99.90;;;;;;5075870;28;19916;-54
2023/09/29 04:14:54;;;;;;;;;;;10.20;99.90;;;;;;5076090;28;19918;-54
2023/09/29 04:17:20;;;;;;;;;;;10.20;99.90;;;;;;5076112;28;19908;-54
2023/09/29 04:19:46;;;;;;;;;;;10.20;99.90;;;;;;5076009;28;20404;-54
2023/09/29 04:22:12;;;;;;;;;;;10.20;99.90;;;;;;5076045;28;19909;-54
2023/09/29 04:24:39;;;;;;;;;;;10.10;99.90;;;;;;5075991;28;19908;-54
2023/09/29 04:27:05;;;;;;;;;;;10.10;99.90;;;;;;5075974;28;19908;-54
2023/09/29 04:29:31;;;;;;;;;;;10.10;99.90;;;;;;5075970;28;20376;-54
2023/09/29 04:31:57;;;;;;;;;;;10.00;99.90;;;;;;5075778;28;20357;-54
2023/09/29 04:34:23;;;;;;;;;;;10.10;99.90;;;;;;5075795;28;19954;-54
2023/09/29 04:36:49;;;;;;;;;;;10.10;99.90;;;;;;5075938;28;19904;-54
2023/09/29 04:39:16;;;;;;;;;;;10.10;99.90;;;;;;5075842;28;19916;-54
2023/09/29 04:41:42;;;;;;;;;;;10.20;99.90;;;;;;5075761;28;19909;-54
2023/09/29 04:44:07;;;;;;;;;;;10.10;99.90;;;;;;5075671;28;19912;-54
2023/09/29 04:46:34;;;;;;;;;;;10.00;99.90;;;;;;5075829;28;20003;-54
2023/09/29 04:49:02;;;;;;;;;;;10.00;99.90;;;;;;5075627;28;19909;-54
2023/09/29 04:51:28;;;;;;;;;;;10.20;99.90;;;;;;5075779;28;19951;-54
2023/09/29 04:53:54;;;;;;;;;;;10.20;99.90;;;;;;5075612;28;19961;-54
2023/09/29 04:56:19;;;;;;;;;;;10.30;99.90;;;;;;5075266;28;19991;-54
2023/09/29 04:58:45;;;;;;;;;;;10.40;99.90;;;;;;5066760;28;19915;-54
2023/09/29 05:01:16;;;;;;;;;;;10.30;99.90;;;;;;5055505;28;19931;-54
2023/09/29 05:03:42;;;;;;;;;;;10.30;99.90;;;;;;5055499;28;19912;-54
2023/09/29 05:06:07;;;;;;;;;;;10.30;99.90;;;;;;5057044;28;19911;-54
2023/09/29 05:08:33;;;;;;;;;;;10.40;99.90;;;;;;5059263;28;20003;-54
2023/09/29 05:10:59;;;;;;;;;;;10.50;99.90;;;;;;5059410;28;19916;-54
2023/09/29 05:13:28;;;;;;;;;;;10.80;99.90;;;;;;5041259;28;19912;-54
2023/09/29 05:15:54;;;;;;;;;;;11.00;99.90;;;;;;5059336;28;19909;-54
2023/09/29 05:18:20;;;;;;;;;;;11.40;99.90;;;;;;5059384;28;20354;-54
2023/09/29 05:20:45;;;;;;;;;;;11.80;99.90;;;;;;5055138;28;19909;-54
2023/09/29 05:23:11;;;;;;;;;;;12.20;99.90;;;;;;5054702;28;19909;-54
2023/09/29 05:25:39;;;;;;;;;;;12.70;99.90;;;;;;5048534;28;19909;-54
2023/09/29 05:28:05;;;;;;;;;;;13.10;99.90;;;;;;5051025;28;20354;-54
2023/09/29 05:30:31;;;;;;;;;;;13.10;99.90;;;;;;5054170;28;19961;-54
2023/09/29 05:32:57;;;;;;;;;;;13.00;99.90;;;;;;5055438;28;19923;-54
2023/09/29 05:35:22;;;;;;;;;;;12.90;99.90;;;;;;5058640;28;19970;-54
2023/09/29 05:37:50;;;;;;;;;;;13.10;99.90;;;;;;5059134;28;19908;-54
2023/09/29 05:40:16;;;;;;;;;;;13.00;99.90;;;;;;5059286;28;19910;-55
2023/09/29 05:42:43;;;;;;;;;;;13.10;99.90;;;;;;5058960;28;19931;-54
2023/09/29 05:45:10;;;;;;;;;;;12.90;99.90;;;;;;5058130;28;19909;-54
2023/09/29 05:47:36;;;;;;;;;;;13.20;99.90;;;;;;5056792;28;20398;-55
2023/09/29 05:50:03;;;;;;;;;;;13.20;99.90;;;;;;5044531;28;20008;-54
2023/09/29 05:52:29;;;;;;;;;;;13.10;99.90;;;;;;5052761;28;19920;-55
2023/09/29 05:54:54;;;;;;;;;;;13.00;99.90;;;;;;5048844;28;19920;-54
2023/09/29 05:57:20;;;;;;;;;;;13.20;99.90;;;;;;5049483;28;19954;-54
2023/09/29 05:59:46;;;;;;;;;;;13.60;99.90;;;;;;5072472;28;19947;-54
2023/09/29 06:02:12;;;;;;;;;;;13.80;99.90;;;;;;5078064;28;19908;-54
2023/09/29 06:04:38;;;;;;;;;;;13.90;99.90;;;;;;5078342;28;19966;-54
2023/09/29 06:07:03;;;;;;;;;;;14.30;99.90;;;;;;5065576;28;19913;-55
2023/09/29 06:09:29;;;;;;;;;;;14.50;99.90;;;;;;5049924;28;19985;-54
2023/09/29 06:11:55;;;;;;;;;;;14.80;99.90;;;;;;5057749;28;20004;-54
2023/09/29 06:14:21;;;;;;;;;;;15.10;99.90;;;;;;5046436;28;19912;-54
2023/09/29 06:16:47;;;;;;;;;;;15.40;99.90;;;;;;5043986;28;19952;-54
2023/09/29 06:19:14;;;;;;;;;;;15.50;99.90;;;;;;5048468;28;19924;-54
2023/09/29 06:21:40;;;;;;;;;;;15.70;99.90;;;;;;5056792;28;20404;-54
2023/09/29 06:24:06;;;;;;;;;;;16.10;99.90;;;;;;5055380;28;19913;-55
2023/09/29 06:26:32;;;;;;;;;;;16.20;99.90;;;;;;5046281;28;19912;-55
2023/09/29 06:28:59;;;;;;;;;;;16.40;99.90;;;;;;5037474;28;19948;-55
2023/09/29 06:31:25;;;;;;;;;;;16.50;99.00;;;;;;5037692;28;19909;-55
2023/09/29 06:33:51;;;;;;;;;;;16.70;98.60;;;;;;5045738;28;19967;-55
2023/09/29 06:36:17;;;;;;;;;;;17.00;98.20;;;;;;5057531;28;20373;-55
2023/09/29 06:38:42;;;;;;;;;;;17.10;97.10;;;;;;5057324;28;19904;-55
2023/09/29 06:41:09;;;;;;;;;;;17.30;96.50;;;;;;5057528;28;19954;-55
2023/09/29 06:43:35;;;;;;;;;;;17.60;96.70;;;;;;5057154;28;20007;-55
2023/09/29 06:46:01;;;;;;;;;;;17.80;95.70;;;;;;5057266;28;19909;-55
2023/09/29 06:48:27;;;;;;;;;;;18.00;94.80;;;;;;5050988;28;20395;-55
2023/09/29 06:50:53;;;;;;;;;;;18.10;94.30;;;;;;5041408;28;19909;-55
2023/09/29 06:53:19;;;;;;;;;;;18.30;94.60;;;;;;5056557;28;20015;-55
2023/09/29 06:55:45;;;;;;;;;;;18.70;94.20;;;;;;5056905;28;19915;-55
2023/09/29 06:58:11;;;;;;;;;;;18.60;92.90;;;;;;5061518;28;19909;-55
2023/09/29 07:00:37;;;;;;;;;;;18.90;92.90;;;;;;5071813;28;19913;-55
2023/09/29 07:03:03;;;;;;;;;;;19.20;92.30;;;;;;5052161;28;19916;-55
2023/09/29 07:05:28;;;;;;;;;;;19.50;91.00;;;;;;5057285;28;19909;-55
2023/09/29 07:07:54;;;;;;;;;;;19.30;91.60;;;;;;5056748;28;20023;-55
2023/09/29 07:10:20;;;;;;;;;;;19.60;90.50;;;;;;5056801;28;19915;-55
2023/09/29 07:12:46;;;;;;;;;;;19.80;90.10;;;;;;5056479;28;19919;-55
2023/09/29 07:15:12;;;;;;;;;;;19.80;90.40;;;;;;5056603;28;19916;-55
2023/09/29 07:17:38;;;;;;;;;;;20.10;89.20;;;;;;5056990;28;19904;-55
2023/09/29 07:20:04;;;;;;;;;;;20.30;88.20;;;;;;5056554;28;20042;-55
2023/09/29 07:22:30;;;;;;;;;;;20.30;86.40;;;;;;5038688;28;20358;-55
2023/09/29 07:24:57;;;;;;;;;;;20.50;85.40;;;;;;5050281;28;19964;-55
2023/09/29 07:27:24;;;;;;;;;;;20.70;82.50;;;;;;5045351;28;19964;-55
2023/09/29 07:29:50;;;;;;;;;;;20.90;82.60;;;;;;5036667;28;20367;-55
2023/09/29 07:32:15;;;;;;;;;;;20.80;81.70;;;;;;5049571;28;19915;-56
2023/09/29 07:34:41;;;;;;;;;;;20.90;81.50;;;;;;5054945;28;20362;-55
2023/09/29 07:37:07;;;;;;;;;;;21.50;80.10;;;;;;5056573;28;20069;-56
2023/09/29 07:39:34;;;;;;;;;;;21.80;78.70;;;;;;5053944;28;20361;-55
2023/09/29 07:42:00;;;;;;;;;;;22.80;76.80;;;;;;5044574;28;19905;-56
2023/09/29 07:44:26;;;;;;;;;;;22.90;72.30;;;;;;5036264;28;19909;-56
2023/09/29 07:46:53;;;;;;;;;;;23.40;69.70;;;;;;5036325;28;19909;-56
2023/09/29 07:49:20;;;;;;;;;;;23.50;66.90;;;;;;5036488;28;19905;-56
2023/09/29 07:51:46;;;;;;;;;;;23.20;66.90;;;;;;5053451;28;19909;-56
2023/09/29 07:54:11;;;;;;;;;;;23.30;68.00;;;;;;5053100;28;19983;-56
2023/09/29 07:56:37;;;;;;;;;;;23.60;65.80;;;;;;5049715;28;19915;-56
2023/09/29 07:59:03;;;;;;;;;;;23.80;64.30;;;;;;5066879;28;19915;-55
2023/09/29 08:01:29;;;;;;;;;;;24.00;64.10;;;;;;5075687;28;19912;-55
2023/09/29 08:03:55;;;;;;;;;;;24.40;62.70;;;;;;5063325;28;19987;-56
2023/09/29 08:06:22;;;;;;;;;;;24.40;61.30;;;;;;5055125;28;20344;-56
2023/09/29 08:08:48;;;;;;;;;;;24.50;61.40;;;;;;5055958;28;19932;-55
2023/09/29 08:11:14;;;;;;;;;;;25.50;60.10;;;;;;5056303;28;19905;-55
2023/09/29 08:13:39;;;;;;;;;;;25.60;57.30;;;;;;5055901;28;20350;-56
2023/09/29 08:16:06;;;;;;;;;;;25.40;58.30;;;;;;5055946;28;19954;-55
2023/09/29 08:18:32;;;;;;;;;;;25.50;56.50;;;;;;5056065;28;19913;-55
2023/09/29 08:20:58;;;;;;;;;;;25.50;55.80;;;;;;5056390;28;20380;-55
2023/09/29 08:23:23;;;;;;;;;;;25.60;54.70;;;;;;5054199;28;20326;-55
2023/09/29 08:25:49;;;;;;;;;;;25.70;56.30;;;;;;5043731;28;19913;-56
2023/09/29 08:28:15;;;;;;;;;;;25.90;54.90;;;;;;5054794;28;20290;-56
2023/09/29 08:30:41;;;;;;;;;;;25.60;53.80;;;;;;5055837;28;19916;-56
2023/09/29 08:33:06;;;;;;;;;;;26.20;55.20;;;;;;5055419;28;19917;-55
2023/09/29 08:35:32;;;;;;;;;;;26.70;52.40;;;;;;5055079;28;19947;-56
2023/09/29 08:37:58;;;;;;;;;;;26.90;52.30;;;;;;5037359;28;19951;-56
2023/09/29 08:40:24;;;;;;;;;;;27.30;50.30;;;;;;5054917;28;19912;-55
2023/09/29 08:42:50;;;;;;;;;;;27.70;49.40;;;;;;5055191;28;20447;-56
2023/09/29 08:45:17;;;;;;;;;;;27.50;47.50;;;;;;5055287;28;19909;-56
2023/09/29 08:47:46;;;;;;;;;;;27.50;46.50;;;;;;5055530;28;20366;-56
2023/09/29 08:50:14;;;;;;;;;;;27.80;47.60;;;;;;5055032;28;19930;-56
2023/09/29 08:52:47;;;;;;;;;;;28.50;44.90;;;;;;5053264;28;19912;-56
2023/09/29 08:55:13;;;;;;;;;;;28.40;44.50;;;;;;5055491;28;19915;-56
2023/09/29 08:57:42;;;;;;;;;;;28.30;44.40;;;;;;5055415;28;19999;-56
2023/09/29 09:00:14;;;;;;;;;;;28.60;45.60;;;;;;5074152;28;19908;-56
2023/09/29 09:02:44;;;;;;;;;;;29.20;46.30;;;;;;5065125;28;19908;-56
2023/09/29 09:05:14;;;;;;;;;;;29.40;42.30;;;;;;5053627;28;19908;-56
2023/09/29 09:07:41;;;;;;;;;;;29.30;40.80;;;;;;5050829;28;20386;-56
2023/09/29 09:10:08;;;;;;;;;;;28.80;41.10;;;;;;5043990;28;19956;-56
2023/09/29 09:12:35;;;;;;;;;;;28.50;42.00;;;;;;5049518;28;19913;-56
2023/09/29 09:15:03;;;;;;;;;;;28.30;40.10;;;;;;5039981;28;19963;-56
2023/09/29 09:17:30;;;;;;;;;;;28.70;42.00;;;;;;5034737;28;19941;-56
2023/09/29 09:19:56;;;;;;;;;;;29.20;42.10;;;;;;5040481;28;20436;-56
2023/09/29 09:22:27;;;;;;;;;;;29.50;39.70;;;;;;5044704;28;19909;-56
2023/09/29 09:24:59;;;;;;;;;;;29.50;38.80;;;;;;5035930;28;19917;-56
2023/09/29 09:27:26;;;;;;;;;;;29.50;37.70;;;;;;5035255;28;19917;-56
2023/09/29 09:29:53;;;;;;;;;;;29.00;35.90;;;;;;5034449;28;19909;-56
2023/09/29 09:32:26;;;;;;;;;;;28.00;38.70;;;;;;5035476;28;19994;-56
2023/09/29 09:34:52;;;;;;;;;;;28.70;39.70;;;;;;5035411;28;20047;-56
2023/09/29 09:37:25;;;;;;;;;;;28.80;42.30;;;;;;5035146;28;19909;-56
2023/09/29 09:39:55;;;;;;;;;;;27.50;42.40;;;;;;5035133;28;19976;-56
2023/09/29 09:42:27;;;;;;;;;;;28.80;40.60;;;;;;5035717;28;19911;-56
2023/09/29 09:44:59;;;;;;;;;;;30.00;37.80;;;;;;5050987;28;19913;-56
2023/09/29 09:47:25;;;;;;;;;;;30.00;36.40;;;;;;5055242;28;19958;-56
2023/09/29 09:49:55;;;;;;;;;;;29.50;36.40;;;;;;5055530;28;19909;-56
2023/09/29 09:52:25;;;;;;;;;;;29.90;35.20;;;;;;5056017;28;20362;-56
2023/09/29 09:54:55;;;;;;;;;;;30.10;35.30;;;;;;5058213;28;20263;-56
2023/09/29 09:57:30;;;;;;;;;;;30.00;34.10;;;;;;5055246;28;19970;-56
2023/09/29 10:00:00;;;;;;;;;;;30.40;33.70;;;;;;5052905;28;20347;-56
2023/09/29 10:02:27;;;;;;;;;;;30.70;33.70;;;;;;5038036;28;20283;-56
2023/09/29 10:04:54;;;;;;;;;;;30.90;33.20;;;;;;5053078;28;20464;-56
2023/09/29 10:07:21;;;;;;;;;;;31.00;34.30;;;;;;5047622;28;19912;-56
2023/09/29 10:09:48;;;;;;;;;;;31.00;32.00;;;;;;5042120;28;19913;-56
2023/09/29 10:12:27;;;;;;;;;;;30.90;35.50;;;;;;5044935;28;20288;-56
2023/09/29 10:14:55;;;;;;;;;;;32.20;30.80;;;;;;5038295;28;19916;-56
2023/09/29 10:17:21;;;;;;;;;;;31.90;31.10;;;;;;5038916;28;19984;-56
2023/09/29 10:19:51;;;;;;;;;;;31.70;31.90;;;;;;5048875;28;19956;-56
2023/09/29 10:22:28;;;;;;;;;;;32.10;30.70;;;;;;5037042;28;19913;-56
2023/09/29 10:24:57;;;;;;;;;;;32.40;29.80;;;;;;5038483;28;19984;-56
2023/09/29 10:27:31;;;;;;;;;;;32.20;32.10;;;;;;5037572;28;19915;-56
2023/09/29 10:30:16;;;;;;;;;;;32.40;29.20;;;;;;5046870;28;19912;-56
2023/09/29 10:32:43;;;;;;;;;;;32.10;30.00;;;;;;5057540;28;19960;-56
2023/09/29 10:35:18;;;;;;;;;;;32.60;29.20;;;;;;5043169;28;19909;-56
2023/09/29 10:37:56;;;;;;;;;;;32.80;28.30;;;;;;5057133;28;20003;-56
2023/09/29 10:40:23;;;;;;;;;;;33.00;28.90;;;;;;5057328;28;20426;-56
2023/09/29 10:42:54;;;;;;;;;;;32.90;27.20;;;;;;5056974;28;19908;-56
2023/09/29 10:45:28;;;;;;;;;;;33.20;28.30;;;;;;5068336;28;19908;-56
2023/09/29 10:48:00;;;;;;;;;;;33.30;27.30;;;;;;5061300;28;19908;-56
2023/09/29 10:50:26;;;;;;;;;;;33.00;25.30;;;;;;5058339;28;19916;-56
2023/09/29 10:52:52;;;;;;;;;;;33.10;24.20;;;;;;5055134;28;19917;-56
2023/09/29 10:55:18;;;;;;;;;;;31.90;25.10;;;;;;5056178;28;20051;-56
2023/09/29 10:57:44;;;;;;;;;;;31.20;25.00;;;;;;5056104;28;20374;-56
2023/09/29 11:00:11;;;;;;;;;;;31.70;27.10;;;;;;5057217;28;19908;-56
2023/09/29 11:02:37;;;;;;;;;;;30.90;26.20;;;;;;5055829;28;19931;-56
2023/09/29 11:05:05;;;;;;;;;;;31.30;25.90;;;;;;5053074;28;19915;-56
2023/09/29 11:07:58;;;;;;;;;;;31.70;25.40;;;;;;5057607;28;19913;-56
2023/09/29 11:10:24;;;;;;;;;;;32.50;27.30;;;;;;5039153;28;19913;-56
2023/09/29 11:12:50;;;;;;;;;;;32.40;24.80;;;;;;5036665;28;19917;-56
2023/09/29 11:15:17;;;;;;;;;;;32.20;23.80;;;;;;5037208;28;20289;-56
2023/09/29 11:17:47;;;;;;;;;;;32.60;24.60;;;;;;5041983;28;19915;-56
2023/09/29 11:20:25;;;;;;;;;;;32.90;23.50;;;;;;5055443;28;20327;-56
2023/09/29 11:23:13;;;;;;;;;;;32.80;23.30;;;;;;5056968;28;19909;-56
2023/09/29 11:25:48;;;;;;;;;;;32.70;23.40;;;;;;5056924;28;20316;-56
2023/09/29 11:28:15;;;;;;;;;;;31.30;23.90;;;;;;5056342;28;19951;-56
2023/09/29 11:30:44;;;;;;;;;;;31.60;24.00;;;;;;5055833;28;19987;-56
2023/09/29 11:33:11;;;;;;;;;;;31.60;25.20;;;;;;5055714;28;20205;-56
2023/09/29 11:35:37;;;;;;;;;;;31.20;22.90;;;;;;5056369;28;19993;-56
2023/09/29 11:38:05;;;;;;;;;;;32.10;24.50;;;;;;5057149;28;19938;-56
2023/09/29 11:40:31;;;;;;;;;;;32.00;22.10;;;;;;5056828;28;20354;-56
2023/09/29 11:42:56;;;;;;;;;;;30.80;22.90;;;;;;5056190;28;19920;-56
2023/09/29 11:45:22;;;;;;;;;;;30.20;24.20;;;;;;5056514;28;19904;-56
2023/09/29 11:47:48;;;;;;;;;;;30.20;25.00;;;;;;5051865;28;19913;-56
2023/09/29 11:50:14;;;;;;;;;;;30.60;25.00;;;;;;5044488;28;19909;-56
2023/09/29 11:52:41;;;;;;;;;;;31.40;24.60;;;;;;5036456;28;19913;-56
2023/09/29 11:55:11;;;;;;;;;;;31.70;22.90;;;;;;5035987;28;19959;-56
2023/09/29 11:57:40;;;;;;;;;;;31.80;23.00;;;;;;5035766;28;19913;-56
2023/09/29 12:00:09;;;;;;;;;;;30.70;23.30;;;;;;5074763;28;20006;-56
2023/09/29 12:02:35;;;;;;;;;;;31.00;21.70;;;;;;5075776;28;19908;-56
2023/09/29 12:05:02;;;;;;;;;;;30.80;20.80;;;;;;5056011;28;19913;-56
2023/09/29 12:07:28;;;;;;;;;;;31.30;22.70;;;;;;5055383;28;19919;-56
2023/09/29 12:09:55;;;;;;;;;;;31.10;22.60;;;;;;5055773;28;20358;-56
2023/09/29 12:12:22;;;;;;;;;;;31.10;23.80;;;;;;5047781;28;19909;-56
2023/09/29 12:14:47;;;;;;;;;;;30.80;23.10;;;;;;5040249;28;19913;-56
2023/09/29 12:17:13;;;;;;;;;;;29.90;24.00;;;;;;5041044;28;19915;-56
2023/09/29 12:19:39;;;;;;;;;;;30.70;26.30;;;;;;5035648;28;19944;-56
2023/09/29 12:22:05;;;;;;;;;;;31.00;23.50;;;;;;5035638;28;20251;-56
2023/09/29 12:24:31;;;;;;;;;;;31.60;21.70;;;;;;5046582;28;19909;-56
2023/09/29 12:26:58;;;;;;;;;;;31.40;23.00;;;;;;5055303;28;19985;-56
2023/09/29 12:29:24;;;;;;;;;;;31.50;19.50;;;;;;5055575;28;19916;-56
2023/09/29 12:31:50;;;;;;;;;;;30.80;19.70;;;;;;5055545;28;19908;-56
2023/09/29 12:34:17;;;;;;;;;;;31.30;19.70;;;;;;5053467;28;20007;-56
2023/09/29 12:36:44;;;;;;;;;;;32.00;20.50;;;;;;5054118;28;19916;-56
2023/09/29 12:39:10;;;;;;;;;;;32.50;19.90;;;;;;5055662;28;19908;-56
2023/09/29 12:41:40;;;;;;;;;;;32.50;20.80;;;;;;5055149;28;19909;-56
2023/09/29 12:44:05;;;;;;;;;;;32.00;17.00;;;;;;5055225;28;20183;-56
2023/09/29 12:46:31;;;;;;;;;;;31.50;19.90;;;;;;5055581;28;20188;-56
2023/09/29 12:48:58;;;;;;;;;;;31.60;19.00;;;;;;5054514;28;20185;-56
2023/09/29 12:51:24;;;;;;;;;;;31.30;17.80;;;;;;5054618;28;19909;-56
2023/09/29 12:53:50;;;;;;;;;;;30.90;18.10;;;;;;5055342;28;20396;-56
2023/09/29 12:56:16;;;;;;;;;;;31.10;20.30;;;;;;5049248;28;19909;-56
2023/09/29 12:58:41;;;;;;;;;;;31.50;19.20;;;;;;5048635;28;19909;-56
2023/09/29 13:01:10;;;;;;;;;;;31.90;21.20;;;;;;5035679;28;19909;-56
2023/09/29 13:03:39;;;;;;;;;;;31.90;19.00;;;;;;5033806;28;20051;-56
2023/09/29 13:06:05;;;;;;;;;;;32.20;20.00;;;;;;5035341;28;19905;-56
2023/09/29 13:08:33;;;;;;;;;;;32.40;20.50;;;;;;5035320;28;19913;-56
2023/09/29 13:10:59;;;;;;;;;;;32.50;18.00;;;;;;5035098;28;20322;-56
2023/09/29 13:13:25;;;;;;;;;;;31.20;17.40;;;;;;5034898;28;20000;-56
2023/09/29 13:15:52;;;;;;;;;;;30.70;19.90;;;;;;5035563;28;19909;-56
2023/09/29 13:18:18;;;;;;;;;;;31.10;19.60;;;;;;5035052;28;20289;-56
2023/09/29 13:20:45;;;;;;;;;;;31.20;18.50;;;;;;5034507;28;20003;-56
2023/09/29 13:23:11;;;;;;;;;;;30.80;19.30;;;;;;5035228;28;20309;-56
2023/09/29 13:25:37;;;;;;;;;;;31.00;19.20;;;;;;5035108;28;19936;-56
2023/09/29 13:28:04;;;;;;;;;;;30.20;19.80;;;;;;5036917;28;19917;-56
2023/09/29 13:30:30;;;;;;;;;;;30.60;18.90;;;;;;5037843;28;19970;-56
2023/09/29 13:32:56;;;;;;;;;;;30.20;19.00;;;;;;5038839;28;20004;-56
2023/09/29 13:35:22;;;;;;;;;;;29.30;20.50;;;;;;5038899;28;19913;-56
2023/09/29 13:37:48;;;;;;;;;;;28.70;20.30;;;;;;5038822;28;19976;-56
2023/09/29 13:40:14;;;;;;;;;;;29.50;19.90;;;;;;5039186;28;19920;-56
2023/09/29 13:42:40;;;;;;;;;;;30.20;20.00;;;;;;5038130;28;19917;-56
2023/09/29 13:45:06;;;;;;;;;;;30.40;19.30;;;;;;5038947;28;20012;-56
2023/09/29 13:47:32;;;;;;;;;;;30.50;18.80;;;;;;5038673;28;19915;-56
2023/09/29 13:50:02;;;;;;;;;;;30.20;20.10;;;;;;5038451;28;19909;-56
2023/09/29 13:52:28;;;;;;;;;;;30.50;20.50;;;;;;5040465;28;19913;-56
2023/09/29 13:54:54;;;;;;;;;;;30.70;19.70;;;;;;5050656;28;20251;-56
2023/09/29 13:57:20;;;;;;;;;;;30.70;19.90;;;;;;5057606;28;19913;-56
2023/09/29 13:59:46;;;;;;;;;;;30.40;19.30;;;;;;5057520;28;20350;-56
2023/09/29 14:02:12;;;;;;;;;;;30.50;18.90;;;;;;5057878;28;19916;-56
2023/09/29 14:04:39;;;;;;;;;;;30.20;18.50;;;;;;5057203;28;19917;-56
2023/09/29 14:07:05;;;;;;;;;;;30.20;19.20;;;;;;5057695;28;19959;-56
2023/09/29 14:09:31;;;;;;;;;;;30.20;20.00;;;;;;5057440;28;19939;-56
2023/09/29 14:11:57;;;;;;;;;;;30.40;19.30;;;;;;5037914;28;19913;-56
2023/09/29 14:14:22;;;;;;;;;;;30.00;18.60;;;;;;5037447;28;20290;-56